Sentinel, North Dakota
Current Conditions -  °F | °C
As of 8:55 AM on Sunday 21 Dec 2014 (Local Time) from K20U Reporting Station
Overcast Overcast  
Wind Chill: 26°   Ceiling: 8000
Heat Index: 32°   Visibility: 10mi
Dew Point: 28°   Wind: 7mph
Humidity: 87%   Direction: 160°SSE
Pressure: 29.43"   Gusts: NA
Location:  46.8047°N, 103.735°W
Report Text: K20U 211555Z AUTO 16006KT 10SM OVC080 00/M02 A2943 RMK AO2
Loading
Personal Weather Stations






























Interactive Weather Map New forecast layout! Learn more

10-Day Weather Forecast

Advertisements
Track Severe Weather on mobile